createdAt,value
2023-04-29T00:01:17.501Z,1.00
2023-04-29T00:03:45.699Z,10.90
2023-04-29T00:06:13.965Z,1.00
2023-04-29T00:08:43.442Z,1.00
2023-04-29T00:11:12.239Z,1.00
2023-04-29T00:13:40.814Z,1.00
2023-04-29T00:16:10.494Z,1.00
2023-04-29T00:18:39.042Z,1.00
2023-04-29T00:21:07.220Z,1.00
2023-04-29T00:23:35.636Z,1.00
2023-04-29T00:26:05.202Z,1.00
2023-04-29T00:28:33.813Z,26.20
2023-04-29T00:31:02.224Z,89.60
2023-04-29T00:33:30.625Z,99.90
2023-04-29T00:35:58.630Z,99.90
2023-04-29T00:38:26.805Z,99.90
2023-04-29T00:40:54.960Z,99.90
2023-04-29T00:43:24.555Z,99.90
2023-04-29T00:45:52.652Z,99.90
2023-04-29T00:48:21.010Z,99.90
2023-04-29T00:50:49.028Z,99.90
2023-04-29T00:53:17.336Z,99.90
2023-04-29T00:55:47.459Z,99.90
2023-04-29T00:58:15.787Z,99.90
2023-04-29T01:00:47.022Z,99.90
2023-04-29T01:03:15.705Z,99.90
2023-04-29T01:05:46.208Z,99.90
2023-04-29T01:08:24.233Z,99.90
2023-04-29T01:10:58.054Z,99.90
2023-04-29T01:13:31.913Z,99.90
2023-04-29T01:16:09.619Z,99.90
2023-04-29T01:18:43.422Z,99.90
2023-04-29T01:21:12.422Z,99.90
2023-04-29T01:23:42.021Z,1.00
2023-04-29T01:26:10.203Z,1.00
2023-04-29T01:29:19.649Z,99.90
2023-04-29T01:31:55.259Z,99.90
2023-04-29T01:34:29.123Z,99.90
2023-04-29T01:37:04.998Z,99.90
2023-04-29T01:39:46.624Z,99.90
2023-04-29T01:42:23.862Z,99.90
2023-04-29T01:44:55.645Z,99.90
2023-04-29T01:47:24.568Z,99.90
2023-04-29T01:49:55.639Z,99.90
2023-04-29T01:52:24.097Z,99.90
2023-04-29T01:54:58.919Z,99.90
2023-04-29T01:57:32.444Z,99.90
2023-04-29T02:00:11.703Z,99.90
2023-04-29T02:02:44.820Z,99.90
2023-04-29T02:05:32.311Z,99.90
2023-04-29T02:08:00.446Z,99.90
2023-04-29T02:10:31.180Z,99.90
2023-04-29T02:13:13.561Z,99.90
2023-04-29T02:15:42.662Z,99.90
2023-04-29T02:18:11.228Z,99.90
2023-04-29T02:20:39.656Z,99.90
2023-04-29T02:23:07.688Z,99.90
2023-04-29T02:25:38.984Z,99.90
2023-04-29T02:28:07.375Z,99.90
2023-04-29T02:30:35.435Z,99.90
2023-04-29T02:33:04.101Z,99.90
2023-04-29T02:35:32.853Z,99.90
2023-04-29T02:38:01.115Z,99.90
2023-04-29T02:40:29.516Z,99.90
2023-04-29T02:42:59.057Z,99.90
2023-04-29T02:45:28.998Z,99.90
2023-04-29T02:47:57.197Z,99.90
2023-04-29T02:50:26.182Z,99.90
2023-04-29T02:52:54.802Z,99.90
2023-04-29T02:55:23.259Z,99.90
2023-04-29T02:57:51.480Z,99.90
2023-04-29T03:00:21.832Z,1.00
2023-04-29T03:02:50.242Z,1.00
2023-04-29T03:05:19.172Z,1.00
2023-04-29T03:07:47.292Z,1.00
2023-04-29T03:10:15.467Z,1.00
2023-04-29T03:12:43.585Z,1.00
2023-04-29T03:15:12.551Z,1.00
2023-04-29T03:17:42.383Z,1.00
2023-04-29T03:20:11.686Z,1.00
2023-04-29T03:22:40.843Z,1.00
2023-04-29T03:25:10.417Z,1.00
2023-04-29T03:27:39.887Z,1.00
2023-04-29T03:30:09.976Z,1.00
2023-04-29T03:32:45.452Z,1.00
2023-04-29T03:35:15.521Z,1.00
2023-04-29T03:38:04.294Z,1.00
2023-04-29T03:40:34.780Z,1.00
2023-04-29T03:43:03.508Z,1.00
2023-04-29T03:45:32.112Z,1.00
2023-04-29T03:48:04.713Z,1.00
2023-04-29T03:50:33.120Z,1.00
2023-04-29T03:53:01.270Z,1.00
2023-04-29T03:55:31.086Z,1.00
2023-04-29T03:57:59.217Z,1.00
2023-04-29T04:00:31.094Z,1.00
2023-04-29T04:03:05.080Z,1.00
2023-04-29T04:05:33.740Z,1.00
2023-04-29T04:08:08.608Z,1.00
2023-04-29T04:10:42.674Z,1.00
2023-04-29T04:13:22.097Z,1.00
2023-04-29T04:15:53.496Z,1.00
2023-04-29T04:18:23.072Z,1.00
2023-04-29T04:20:51.281Z,1.00
2023-04-29T04:23:19.436Z,1.00
2023-04-29T04:25:48.306Z,1.00
2023-04-29T04:28:45.492Z,1.00
2023-04-29T04:31:20.393Z,1.00
2023-04-29T04:33:49.881Z,1.00
2023-04-29T04:36:18.214Z,1.00
2023-04-29T04:38:46.601Z,1.00
2023-04-29T04:41:14.629Z,1.00
2023-04-29T04:43:45.191Z,1.00
2023-04-29T04:46:22.152Z,1.00
2023-04-29T04:49:02.078Z,1.00
2023-04-29T04:51:31.407Z,1.00
2023-04-29T04:53:59.466Z,1.00
2023-04-29T04:56:30.688Z,1.00
2023-04-29T04:58:58.790Z,1.00
2023-04-29T05:01:27.429Z,1.00
2023-04-29T05:03:55.745Z,1.00
2023-04-29T05:06:25.660Z,1.00
2023-04-29T05:08:53.908Z,1.00
2023-04-29T05:11:23.202Z,99.90
2023-04-29T05:14:09.974Z,99.90
2023-04-29T05:16:38.269Z,99.90
2023-04-29T05:19:06.714Z,99.90
2023-04-29T05:21:39.996Z,99.90
2023-04-29T05:24:10.480Z,99.90
2023-04-29T05:26:39.277Z,99.90
2023-04-29T05:29:08.292Z,29.40
2023-04-29T05:31:46.102Z,1.00
2023-04-29T05:34:14.387Z,1.00
2023-04-29T05:36:44.183Z,1.00
2023-04-29T05:39:12.418Z,1.00
2023-04-29T05:41:40.526Z,1.00
2023-04-29T05:44:34.833Z,1.00
2023-04-29T05:47:02.986Z,1.00
2023-04-29T05:49:31.846Z,1.00
2023-04-29T05:52:04.162Z,1.00
2023-04-29T05:54:33.490Z,1.00
2023-04-29T05:57:02.334Z,1.00
2023-04-29T05:59:31.067Z,1.00
2023-04-29T06:02:01.715Z,1.00
2023-04-29T06:04:29.977Z,1.00
2023-04-29T06:07:20.190Z,1.00
2023-04-29T06:10:11.940Z,1.00
2023-04-29T06:12:42.713Z,99.90
2023-04-29T06:15:12.454Z,99.90
2023-04-29T06:17:40.858Z,99.90
2023-04-29T06:20:10.315Z,99.90
2023-04-29T06:22:41.916Z,99.90
2023-04-29T06:25:11.132Z,99.90
2023-04-29T06:27:50.589Z,99.90
2023-04-29T06:30:21.861Z,99.90
2023-04-29T06:32:50.258Z,99.90
2023-04-29T06:35:18.533Z,99.90
2023-04-29T06:38:10.275Z,99.90
2023-04-29T06:40:57.843Z,99.90
2023-04-29T06:43:51.154Z,99.90
2023-04-29T06:46:44.206Z,99.90
2023-04-29T06:49:28.952Z,99.90
2023-04-29T06:51:57.105Z,15.40
2023-04-29T06:54:29.422Z,99.90
2023-04-29T06:56:58.219Z,82.90
2023-04-29T06:59:26.454Z,1.00
2023-04-29T07:01:54.611Z,61.50
2023-04-29T07:04:22.772Z,1.00
2023-04-29T07:06:51.211Z,1.00
2023-04-29T07:09:19.282Z,91.30
2023-04-29T07:11:48.687Z,1.00
2023-04-29T07:14:17.048Z,1.00
2023-04-29T07:16:45.229Z,99.90
2023-04-29T07:19:13.469Z,1.00
2023-04-29T07:21:41.676Z,1.00
2023-04-29T07:24:09.736Z,1.00
2023-04-29T07:26:38.175Z,1.00
2023-04-29T07:29:07.788Z,1.00
2023-04-29T07:31:38.330Z,1.00
2023-04-29T07:34:07.044Z,1.00
2023-04-29T07:36:35.488Z,1.00
2023-04-29T07:39:03.838Z,1.00
2023-04-29T07:41:32.951Z,99.90
2023-04-29T07:44:01.052Z,1.00
2023-04-29T07:46:31.530Z,99.90
2023-04-29T07:48:59.819Z,99.90
2023-04-29T07:51:29.120Z,99.90
2023-04-29T07:53:57.289Z,99.90
2023-04-29T07:56:26.049Z,99.90
2023-04-29T07:58:54.612Z,99.90
2023-04-29T08:01:23.141Z,99.90
2023-04-29T08:03:52.952Z,99.90
2023-04-29T08:06:22.995Z,99.90
2023-04-29T08:08:51.140Z,99.90
2023-04-29T08:11:21.405Z,99.90
2023-04-29T08:13:49.735Z,1.00
2023-04-29T08:16:18.422Z,23.80
2023-04-29T08:18:46.485Z,1.00
2023-04-29T08:21:16.324Z,29.50
2023-04-29T08:23:44.383Z,1.00
2023-04-29T08:26:13.065Z,1.00
2023-04-29T08:28:41.415Z,1.00
2023-04-29T08:31:10.801Z,1.00
2023-04-29T08:33:39.665Z,1.00
2023-04-29T08:36:08.802Z,1.00
2023-04-29T08:38:38.255Z,1.00
2023-04-29T08:41:08.703Z,1.00
2023-04-29T08:43:37.940Z,1.00
2023-04-29T08:46:06.741Z,1.00
2023-04-29T08:48:36.196Z,1.00
2023-04-29T08:51:04.460Z,1.00
2023-04-29T08:53:32.905Z,1.00
2023-04-29T08:56:09.755Z,1.00
2023-04-29T08:58:41.003Z,1.00
2023-04-29T09:01:11.035Z,1.00
2023-04-29T09:03:48.291Z,1.00
2023-04-29T09:06:16.839Z,1.00
2023-04-29T09:08:45.087Z,1.00
2023-04-29T09:11:15.725Z,1.00
2023-04-29T09:13:43.941Z,1.00
2023-04-29T09:16:14.781Z,1.00
2023-04-29T09:18:44.292Z,1.00
2023-04-29T09:21:19.051Z,1.00
2023-04-29T09:23:50.095Z,1.00
2023-04-29T09:26:19.452Z,1.00
2023-04-29T09:28:49.705Z,1.00
2023-04-29T09:31:29.094Z,1.00
2023-04-29T09:33:59.103Z,1.00
2023-04-29T09:36:41.900Z,1.00
2023-04-29T09:39:13.834Z,1.00
2023-04-29T09:41:59.215Z,1.00
2023-04-29T09:44:30.577Z,1.00
2023-04-29T09:47:03.046Z,1.00
2023-04-29T09:49:35.474Z,1.00
2023-04-29T09:52:05.048Z,1.00
2023-04-29T09:54:36.345Z,1.00
2023-04-29T09:57:07.266Z,1.00
2023-04-29T09:59:38.607Z,1.00
2023-04-29T10:02:15.340Z,1.00
2023-04-29T10:04:45.745Z,1.00
2023-04-29T10:07:16.648Z,1.00
2023-04-29T10:09:48.799Z,1.00
2023-04-29T10:12:20.176Z,1.00
2023-04-29T10:14:55.183Z,1.00
2023-04-29T10:17:34.131Z,1.00
2023-04-29T10:20:06.339Z,1.00
2023-04-29T10:22:41.355Z,1.00
2023-04-29T10:25:11.544Z,99.90
2023-04-29T10:27:43.410Z,99.90
2023-04-29T10:30:14.592Z,99.90
2023-04-29T10:32:50.377Z,99.90
2023-04-29T10:35:23.248Z,99.90
2023-04-29T10:37:52.934Z,27.50
2023-04-29T10:40:28.849Z,99.90
2023-04-29T10:42:59.505Z,1.00
2023-04-29T10:45:31.279Z,1.00
2023-04-29T10:48:21.007Z,1.00
2023-04-29T10:51:06.099Z,1.00
2023-04-29T10:53:34.327Z,1.00
2023-04-29T10:56:08.821Z,1.00
2023-04-29T10:58:45.460Z,1.00
2023-04-29T11:01:15.167Z,1.00
2023-04-29T11:03:48.706Z,1.00
2023-04-29T11:06:17.506Z,1.00
2023-04-29T11:08:45.867Z,1.00
2023-04-29T11:11:15.433Z,1.00
2023-04-29T11:13:48.585Z,1.00
2023-04-29T11:16:16.705Z,1.00
2023-04-29T11:19:07.270Z,1.00
2023-04-29T11:21:38.059Z,1.00
2023-04-29T11:24:07.781Z,99.90
2023-04-29T11:26:36.908Z,99.90
2023-04-29T11:29:09.193Z,99.90
2023-04-29T11:31:38.142Z,99.90
2023-04-29T11:34:07.360Z,99.90
2023-04-29T11:36:37.008Z,99.90
2023-04-29T11:39:05.855Z,99.90
2023-04-29T11:41:35.827Z,99.90
2023-04-29T11:44:05.042Z,99.90
2023-04-29T11:46:35.760Z,99.90
2023-04-29T11:49:03.853Z,99.90
2023-04-29T11:51:32.734Z,99.90
2023-04-29T11:54:00.921Z,99.90
2023-04-29T11:56:28.980Z,99.90
2023-04-29T11:58:57.717Z,99.90
2023-04-29T12:01:27.550Z,99.90
2023-04-29T12:04:01.065Z,99.90
2023-04-29T12:06:31.715Z,99.90
2023-04-29T12:09:01.750Z,99.90
2023-04-29T12:11:29.842Z,99.90
2023-04-29T12:13:58.452Z,99.90
2023-04-29T12:16:29.334Z,99.90
2023-04-29T12:18:59.733Z,99.90
2023-04-29T12:21:28.637Z,99.90
2023-04-29T12:24:01.404Z,99.90
2023-04-29T12:26:30.304Z,99.90
2023-04-29T12:28:59.974Z,99.90
2023-04-29T12:31:34.814Z,99.90
2023-04-29T12:34:06.848Z,99.90
2023-04-29T12:36:37.829Z,99.90
2023-04-29T12:39:09.773Z,99.90
2023-04-29T12:41:40.884Z,99.90
2023-04-29T12:44:10.731Z,99.90
2023-04-29T12:46:42.796Z,99.90
2023-04-29T12:49:12.778Z,99.90
2023-04-29T12:51:40.914Z,99.90
2023-04-29T12:54:09.040Z,99.90
2023-04-29T12:56:37.150Z,99.90
2023-04-29T12:59:09.003Z,99.90
2023-04-29T13:01:37.277Z,99.90
2023-04-29T13:04:08.927Z,99.90
2023-04-29T13:06:42.204Z,99.90
2023-04-29T13:09:17.874Z,99.90
2023-04-29T13:11:47.437Z,99.90
2023-04-29T13:14:16.384Z,99.90
2023-04-29T13:16:44.645Z,99.90
2023-04-29T13:19:26.634Z,99.90
2023-04-29T13:22:05.193Z,99.90
2023-04-29T13:24:35.214Z,99.90
2023-04-29T13:27:04.041Z,99.90
2023-04-29T13:29:32.155Z,99.90
2023-04-29T13:32:00.229Z,99.90
2023-04-29T13:34:28.479Z,99.90
2023-04-29T13:39:27.493Z,1.00
2023-04-29T13:41:58.939Z,99.90
2023-04-29T13:44:34.306Z,99.90
2023-04-29T13:47:07.779Z,99.90
2023-04-29T13:50:14.752Z,99.90
2023-04-29T13:56:11.642Z,1.00
2023-04-29T14:00:57.052Z,99.90
2023-04-29T14:03:23.279Z,99.90
2023-04-29T14:05:54.156Z,99.90
2023-04-29T14:08:22.294Z,99.90
2023-04-29T14:10:51.771Z,99.90
2023-04-29T14:13:19.782Z,99.90
2023-04-29T14:15:48.092Z,99.90
2023-04-29T14:18:16.148Z,99.90
2023-04-29T14:20:44.373Z,99.90
2023-04-29T14:23:12.543Z,99.90
2023-04-29T14:25:40.721Z,99.90
2023-04-29T14:28:10.512Z,99.90
2023-04-29T14:30:39.121Z,99.90
2023-04-29T14:33:07.697Z,99.90
2023-04-29T14:35:35.769Z,99.60
2023-04-29T14:38:03.860Z,99.90
2023-04-29T14:40:31.882Z,95.50
2023-04-29T14:43:00.021Z,92.80
2023-04-29T14:45:29.729Z,96.90
2023-04-29T14:47:57.948Z,99.70
2023-04-29T14:50:26.106Z,99.90
2023-04-29T14:52:54.198Z,99.90
2023-04-29T14:55:22.420Z,94.00
2023-04-29T14:57:50.470Z,80.30
2023-04-29T15:00:20.022Z,89.40
2023-04-29T15:02:50.698Z,78.10
2023-04-29T15:05:19.063Z,91.20
2023-04-29T15:07:47.586Z,96.20
2023-04-29T15:10:15.752Z,95.60
2023-04-29T15:12:43.984Z,89.00
2023-04-29T15:15:12.124Z,80.20
2023-04-29T15:17:40.732Z,90.40
2023-04-29T15:20:11.319Z,78.90
2023-04-29T15:22:42.668Z,92.90
2023-04-29T15:25:11.097Z,88.80
2023-04-29T15:27:40.740Z,81.00
2023-04-29T15:30:09.718Z,77.30
2023-04-29T15:32:41.087Z,79.40
2023-04-29T15:35:12.622Z,82.00
2023-04-29T15:37:40.876Z,92.90
2023-04-29T15:40:10.356Z,94.60
2023-04-29T15:42:38.865Z,94.50
2023-04-29T15:45:08.741Z,76.30
2023-04-29T15:47:37.048Z,67.20
2023-04-29T15:50:05.926Z,90.20
2023-04-29T15:52:35.626Z,93.20
2023-04-29T15:55:04.049Z,99.90
2023-04-29T15:57:32.289Z,99.90
2023-04-29T16:00:00.600Z,99.90
2023-04-29T16:02:28.929Z,99.90
2023-04-29T16:04:57.143Z,99.90
2023-04-29T16:07:25.539Z,99.90
2023-04-29T16:09:55.284Z,99.90
2023-04-29T16:12:23.594Z,97.40
2023-04-29T16:14:51.719Z,95.60
2023-04-29T16:17:20.617Z,99.90
2023-04-29T16:19:49.463Z,99.90
2023-04-29T16:22:17.611Z,99.90
2023-04-29T16:24:47.872Z,99.90
2023-04-29T16:27:19.167Z,99.90
2023-04-29T16:29:48.334Z,99.90
2023-04-29T16:32:16.377Z,99.90
2023-04-29T16:34:44.443Z,99.90
2023-04-29T16:37:15.461Z,99.90
2023-04-29T16:39:43.884Z,99.90
2023-04-29T16:42:12.262Z,99.90
2023-04-29T16:44:41.996Z,99.90
2023-04-29T16:47:10.642Z,99.90
2023-04-29T16:49:42.542Z,99.90
2023-04-29T16:52:12.566Z,99.90
2023-04-29T16:54:42.207Z,99.90
2023-04-29T16:57:10.225Z,99.90
2023-04-29T16:59:39.004Z,99.90
2023-04-29T17:02:09.033Z,99.90
2023-04-29T17:04:37.453Z,99.90
2023-04-29T17:07:06.374Z,99.90
2023-04-29T17:09:34.461Z,99.90
2023-04-29T17:12:03.723Z,99.90
2023-04-29T17:14:32.053Z,99.90
2023-04-29T17:17:00.282Z,99.90
2023-04-29T17:19:29.713Z,99.90
2023-04-29T17:21:57.931Z,99.90
2023-04-29T17:24:26.512Z,99.90
2023-04-29T17:26:54.723Z,99.90
2023-04-29T17:29:22.781Z,99.90
2023-04-29T17:31:59.490Z,99.90
2023-04-29T17:34:30.999Z,99.90
2023-04-29T17:36:59.106Z,99.90
2023-04-29T17:39:27.140Z,99.90
2023-04-29T17:41:55.153Z,99.90
2023-04-29T17:44:48.169Z,99.90
2023-04-29T17:47:17.338Z,99.90
2023-04-29T17:49:51.888Z,99.90
2023-04-29T17:52:21.499Z,99.90
2023-04-29T17:54:49.689Z,99.90
2023-04-29T17:57:17.761Z,99.90
2023-04-29T17:59:46.915Z,99.90
2023-04-29T18:02:15.129Z,99.90
2023-04-29T18:04:43.340Z,1.00
2023-04-29T18:07:12.804Z,1.00
2023-04-29T18:09:41.166Z,1.00
2023-04-29T18:12:09.217Z,1.00
2023-04-29T18:14:39.091Z,1.00
2023-04-29T18:17:07.485Z,1.00
2023-04-29T18:19:36.548Z,1.00
2023-04-29T18:22:06.296Z,1.00
2023-04-29T18:24:35.822Z,1.00
2023-04-29T18:27:03.989Z,1.00
2023-04-29T18:29:32.125Z,1.00
2023-04-29T18:32:00.350Z,1.00
2023-04-29T18:34:28.468Z,1.00
2023-04-29T18:36:56.534Z,1.00
2023-04-29T18:39:24.649Z,1.00
2023-04-29T18:41:54.481Z,1.00
2023-04-29T18:44:22.505Z,1.00
2023-04-29T18:46:50.921Z,1.00
2023-04-29T18:49:19.124Z,1.00
2023-04-29T18:51:47.397Z,1.00
2023-04-29T18:54:16.710Z,1.00
2023-04-29T18:56:47.535Z,1.00
2023-04-29T18:59:19.443Z,1.00
2023-04-29T19:01:48.419Z,1.00
2023-04-29T19:04:17.068Z,1.00
2023-04-29T19:06:45.538Z,1.00
2023-04-29T19:09:14.513Z,1.00
2023-04-29T19:11:42.772Z,1.00
2023-04-29T19:14:11.026Z,1.00
2023-04-29T19:16:42.642Z,1.00
2023-04-29T19:19:10.743Z,1.00
2023-04-29T19:21:41.897Z,1.00
2023-04-29T19:24:10.438Z,1.00
2023-04-29T19:26:40.245Z,1.00
2023-04-29T19:29:08.529Z,1.00
2023-04-29T19:31:39.091Z,1.00
2023-04-29T19:34:08.816Z,1.00
2023-04-29T19:36:39.611Z,1.00
2023-04-29T19:39:08.846Z,1.00
2023-04-29T19:41:38.877Z,1.00
2023-04-29T19:44:07.460Z,1.00
2023-04-29T19:46:35.774Z,1.00
2023-04-29T19:49:04.010Z,1.00
2023-04-29T19:51:33.632Z,1.00
2023-04-29T19:54:02.423Z,1.00
2023-04-29T19:56:31.408Z,1.00
2023-04-29T19:58:59.513Z,1.00
2023-04-29T20:01:27.518Z,1.00
2023-04-29T20:03:57.916Z,1.00
2023-04-29T20:06:26.188Z,1.00
2023-04-29T20:08:56.100Z,1.00
2023-04-29T20:11:24.727Z,1.00
2023-04-29T20:13:53.385Z,1.00
2023-04-29T20:16:23.257Z,1.00
2023-04-29T20:18:51.633Z,1.00
2023-04-29T20:21:19.764Z,1.00
2023-04-29T20:23:49.051Z,1.00
2023-04-29T20:26:19.770Z,1.00
2023-04-29T20:28:48.281Z,1.00
2023-04-29T20:31:17.016Z,1.00
2023-04-29T20:33:46.146Z,1.00
2023-04-29T20:36:14.659Z,1.00
2023-04-29T20:38:43.997Z,1.00
2023-04-29T20:41:12.446Z,1.00
2023-04-29T20:43:45.176Z,1.00
2023-04-29T20:46:13.659Z,1.00
2023-04-29T20:48:42.650Z,1.00
2023-04-29T20:51:12.507Z,1.00
2023-04-29T20:53:40.924Z,1.00
2023-04-29T20:56:10.502Z,1.00
2023-04-29T20:58:41.641Z,1.00
2023-04-29T21:01:11.350Z,1.00
2023-04-29T21:03:40.517Z,1.00
2023-04-29T21:06:08.627Z,1.00
2023-04-29T21:08:36.790Z,1.00
2023-04-29T21:11:07.707Z,1.00
2023-04-29T21:13:36.250Z,1.00
2023-04-29T21:16:04.617Z,1.00
2023-04-29T21:18:34.040Z,1.00
2023-04-29T21:21:01.996Z,1.00
2023-04-29T21:23:30.161Z,1.00
2023-04-29T21:25:58.190Z,1.00
2023-04-29T21:28:26.296Z,1.00
2023-04-29T21:30:54.412Z,1.00
2023-04-29T21:33:23.036Z,1.00
2023-04-29T21:35:53.234Z,1.00
2023-04-29T21:38:21.557Z,1.00
2023-04-29T21:40:49.921Z,1.00
2023-04-29T21:43:18.632Z,1.00
2023-04-29T21:45:46.923Z,1.00
2023-04-29T21:48:17.103Z,1.00
2023-04-29T21:50:45.975Z,1.00
2023-04-29T21:53:16.586Z,1.00
2023-04-29T21:55:45.056Z,1.00
2023-04-29T21:58:13.176Z,1.00
2023-04-29T22:00:47.914Z,1.00
2023-04-29T22:03:16.180Z,1.00
2023-04-29T22:05:44.352Z,1.00
2023-04-29T22:08:12.551Z,1.00
2023-04-29T22:10:42.193Z,1.00
2023-04-29T22:13:10.522Z,1.00
2023-04-29T22:15:38.954Z,1.00
2023-04-29T22:18:07.655Z,1.00
2023-04-29T22:20:36.071Z,1.00
2023-04-29T22:23:04.404Z,1.00
2023-04-29T22:25:32.726Z,1.00
2023-04-29T22:28:02.365Z,5.70
2023-04-29T22:30:30.549Z,1.00
2023-04-29T22:32:58.601Z,1.00
2023-04-29T22:35:26.692Z,1.00
2023-04-29T22:37:54.738Z,1.00
2023-04-29T22:40:22.830Z,1.00
2023-04-29T22:42:50.967Z,1.00
2023-04-29T22:45:20.580Z,1.00
2023-04-29T22:47:48.691Z,1.00
2023-04-29T22:50:16.898Z,1.00
2023-04-29T22:52:44.922Z,1.00
2023-04-29T22:55:13.242Z,1.00
2023-04-29T22:57:41.651Z,1.00
2023-04-29T23:00:11.149Z,1.00
2023-04-29T23:02:40.701Z,1.00
2023-04-29T23:05:09.438Z,1.00
2023-04-29T23:07:37.542Z,1.00
2023-04-29T23:10:06.214Z,1.00
2023-04-29T23:12:34.331Z,1.00
2023-04-29T23:15:02.347Z,1.00
2023-04-29T23:17:30.390Z,1.00
2023-04-29T23:19:59.847Z,1.00
2023-04-29T23:22:27.840Z,1.00
2023-04-29T23:24:55.912Z,1.00
2023-04-29T23:27:24.034Z,1.00
2023-04-29T23:29:52.438Z,1.00
2023-04-29T23:32:20.712Z,1.00
2023-04-29T23:34:48.926Z,1.00
2023-04-29T23:37:18.297Z,1.00
2023-04-29T23:39:46.343Z,1.00
2023-04-29T23:42:14.462Z,1.00
2023-04-29T23:44:42.540Z,1.70
2023-04-29T23:47:11.452Z,21.70
2023-04-29T23:49:39.615Z,50.60
2023-04-29T23:52:10.209Z,37.40
2023-04-29T23:54:39.863Z,99.90
2023-04-29T23:57:08.021Z,99.90
2023-04-29T23:59:36.071Z,99.90
